< < Back
Terminal Aerodrome Forecast


Current Version              Previous Versions:   1  2  3  4  5  6  7  8  9  

Terminal Aerodrome Forecast

195
FTUS42 KGSP 121843 AAB
TAFGSP
TAF AMD
KGSP 121843Z 1219/1318 02005KT P6SM FEW008 SCT060 BKN090
      TEMPO 1219/1221 SCT008 BKN090
     FM122100 24006KT P6SM BKN060
     FM122200 24007KT P6SM SCT200
     FM130300 28006KT P6SM FEW250
     FM130900 32007KT P6SM FEW250=

Latest METAR

361
SAUS70 KWBC 131100 RRJ
MTRGSP
METAR KGSP 131053Z 01010KT 10SM CLR M01/M08 A3015 RMK AO2 SLP214
T10111078


USA.gov is the U.S. government's official web portal to all federal, state and local government web resources and services.